Terminal Aerodrome Forecast
Issued by NWS

Home | Current Version | Previous Version | Text Only | Print | Product List | Glossary On
Versions: 1 2 3 4 5 6 7 8 9 10 11 12 13 14 15 16 17 18 19 20
000
FTUS46 KLOX 300807 AAA
TAFLGB
TAF AMD
KLGB 300807Z 3008/3106 VRB03KT P6SM BKN150
     FM301600 VRB03KT P6SM SCT015 BKN100
     FM301900 19008KT P6SM SCT040 BKN080
     FM302300 31008KT P6SM SCT040 BKN080=

USA.gov is the U.S. government's official web portal to all federal, state and local government web resources and services.